sensor_id;sensor_type;location;lat;lon;timestamp;pressure;altitude;pressure_sealevel;temperature;humidity
80124;BME280;69433;48.642;9.142;2023-12-28T00:01:16;97079.53;;;22.17;36.85
80124;BME280;69433;48.642;9.142;2023-12-28T00:03:57;97081.47;;;22.17;36.75
80124;BME280;69433;48.642;9.142;2023-12-28T00:06:40;97075.72;;;22.18;36.77
80124;BME280;69433;48.642;9.142;2023-12-28T00:09:18;97076.88;;;22.14;36.88
80124;BME280;69433;48.642;9.142;2023-12-28T00:11:56;97077.28;;;22.12;36.75
80124;BME280;69433;48.642;9.142;2023-12-28T00:14:26;97078.41;;;22.15;36.72
80124;BME280;69433;48.642;9.142;2023-12-28T00:16:54;97078.03;;;22.13;36.90
80124;BME280;69433;48.642;9.142;2023-12-28T00:19:39;97076.88;;;22.14;36.85
80124;BME280;69433;48.642;9.142;2023-12-28T00:22:04;97080.72;;;22.13;36.78
80124;BME280;69433;48.642;9.142;2023-12-28T00:24:29;97084.22;;;22.10;36.83
80124;BME280;69433;48.642;9.142;2023-12-28T00:26:55;97085.38;;;22.09;36.85
80124;BME280;69433;48.642;9.142;2023-12-28T00:29:20;97083.06;;;22.07;36.95
80124;BME280;69433;48.642;9.142;2023-12-28T00:34:44;97078.84;;;22.10;36.91
80124;BME280;69433;48.642;9.142;2023-12-28T00:37:35;97083.44;;;22.09;36.84
80124;BME280;69433;48.642;9.142;2023-12-28T00:40:12;97086.91;;;22.06;36.98
80124;BME280;69433;48.642;9.142;2023-12-28T00:42:39;97083.06;;;22.07;36.78
80124;BME280;69433;48.642;9.142;2023-12-28T00:45:08;97080.41;;;22.07;36.69
80124;BME280;69433;48.642;9.142;2023-12-28T00:47:36;97089.22;;;22.04;36.95
80124;BME280;69433;48.642;9.142;2023-12-28T00:50:02;97096.84;;;22.06;37.02
80124;BME280;69433;48.642;9.142;2023-12-28T00:52:35;97090.38;;;22.03;36.85
80124;BME280;69433;48.642;9.142;2023-12-28T00:55:16;97087.69;;;22.03;36.65
80124;BME280;69433;48.642;9.142;2023-12-28T00:57:42;97090.75;;;22.02;36.93
80124;BME280;69433;48.642;9.142;2023-12-28T01:00:07;97080.06;;;22.02;36.94
80124;BME280;69433;48.642;9.142;2023-12-28T01:02:52;97085.00;;;22.03;36.79
80124;BME280;69433;48.642;9.142;2023-12-28T01:05:20;97095.72;;;22.03;36.81
80124;BME280;69433;48.642;9.142;2023-12-28T01:07:46;97094.19;;;22.02;36.89
80124;BME280;69433;48.642;9.142;2023-12-28T01:10:19;97089.28;;;22.01;36.81
80124;BME280;69433;48.642;9.142;2023-12-28T01:12:48;97094.63;;;21.97;37.10
80124;BME280;69433;48.642;9.142;2023-12-28T01:15:48;97098.41;;;22.03;36.93
80124;BME280;69433;48.642;9.142;2023-12-28T01:18:25;97093.84;;;22.00;37.41
80124;BME280;69433;48.642;9.142;2023-12-28T01:20:50;97093.09;;;22.00;37.58
80124;BME280;69433;48.642;9.142;2023-12-28T01:23:37;97099.59;;;21.99;37.42
80124;BME280;69433;48.642;9.142;2023-12-28T01:26:34;97093.84;;;22.00;37.45
80124;BME280;69433;48.642;9.142;2023-12-28T01:29:00;97093.50;;;21.98;37.39
80124;BME280;69433;48.642;9.142;2023-12-28T01:31:28;97103.78;;;21.96;37.48
80124;BME280;69433;48.642;9.142;2023-12-28T01:34:24;97102.28;;;21.95;37.62
80124;BME280;69433;48.642;9.142;2023-12-28T01:36:49;97103.06;;;21.92;37.49
80124;BME280;69433;48.642;9.142;2023-12-28T01:39:14;97099.97;;;21.94;37.37
80124;BME280;69433;48.642;9.142;2023-12-28T01:41:53;97101.91;;;21.93;37.63
80124;BME280;69433;48.642;9.142;2023-12-28T01:44:18;97102.66;;;21.94;37.47
80124;BME280;69433;48.642;9.142;2023-12-28T01:46:49;97107.63;;;21.95;37.35
80124;BME280;69433;48.642;9.142;2023-12-28T01:49:32;97112.59;;;21.93;37.44
80124;BME280;69433;48.642;9.142;2023-12-28T01:52:00;97120.25;;;21.95;37.33
80124;BME280;69433;48.642;9.142;2023-12-28T01:54:26;97126.00;;;21.93;37.42
80124;BME280;69433;48.642;9.142;2023-12-28T01:56:55;97130.19;;;21.94;37.40
80124;BME280;69433;48.642;9.142;2023-12-28T01:59:27;97129.81;;;21.92;37.31
80124;BME280;69433;48.642;9.142;2023-12-28T02:01:52;97134.03;;;21.93;37.15
80124;BME280;69433;48.642;9.142;2023-12-28T02:04:26;97129.81;;;21.92;37.28
80124;BME280;69433;48.642;9.142;2023-12-28T02:07:01;97129.81;;;21.92;37.19
80124;BME280;69433;48.642;9.142;2023-12-28T02:09:28;97152.00;;;21.93;37.33
80124;BME280;69433;48.642;9.142;2023-12-28T02:11:58;97136.34;;;21.91;37.25
80124;BME280;69433;48.642;9.142;2023-12-28T02:14:35;97139.03;;;21.91;37.10
80124;BME280;69433;48.642;9.142;2023-12-28T02:17:14;97146.69;;;21.89;37.16
80124;BME280;69433;48.642;9.142;2023-12-28T02:19:55;97153.97;;;21.89;37.16
80124;BME280;69433;48.642;9.142;2023-12-28T02:22:25;97161.63;;;21.87;37.19
80124;BME280;69433;48.642;9.142;2023-12-28T02:25:05;97159.69;;;21.87;37.36
80124;BME280;69433;48.642;9.142;2023-12-28T02:27:36;97156.66;;;21.85;37.24
80124;BME280;69433;48.642;9.142;2023-12-28T02:30:29;97160.88;;;21.82;37.55
80124;BME280;69433;48.642;9.142;2023-12-28T02:36:08;97161.63;;;21.83;37.28
80124;BME280;69433;48.642;9.142;2023-12-28T02:38:44;97162.78;;;21.82;37.33
80124;BME280;69433;48.642;9.142;2023-12-28T02:41:12;97150.16;;;21.82;37.27
80124;BME280;69433;48.642;9.142;2023-12-28T02:46:55;97149.06;;;21.80;37.14
80124;BME280;69433;48.642;9.142;2023-12-28T02:49:20;97144.03;;;21.82;36.70
80124;BME280;69433;48.642;9.142;2023-12-28T02:54:56;97147.91;;;21.81;37.35
80124;BME280;69433;48.642;9.142;2023-12-28T02:57:32;97139.13;;;21.80;37.43
80124;BME280;69433;48.642;9.142;2023-12-28T03:00:09;97147.09;;;21.84;37.18
80124;BME280;69433;48.642;9.142;2023-12-28T03:05:29;97142.19;;;21.79;37.42
80124;BME280;69433;48.642;9.142;2023-12-28T03:08:02;97146.75;;;21.78;37.38
80124;BME280;69433;48.642;9.142;2023-12-28T03:10:35;97140.28;;;21.76;37.44
80124;BME280;69433;48.642;9.142;2023-12-28T03:13:02;97139.88;;;21.77;37.23
80124;BME280;69433;48.642;9.142;2023-12-28T03:15:27;97142.94;;;21.79;37.06
80124;BME280;69433;48.642;9.142;2023-12-28T03:17:59;97135.28;;;21.78;37.29
80124;BME280;69433;48.642;9.142;2023-12-28T03:20:26;97146.38;;;21.80;37.12
80124;BME280;69433;48.642;9.142;2023-12-28T03:22:59;97147.53;;;21.79;37.25
80124;BME280;69433;48.642;9.142;2023-12-28T03:25:25;97141.81;;;21.77;37.20
80124;BME280;69433;48.642;9.142;2023-12-28T03:27:51;97148.31;;;21.76;37.30
80124;BME280;69433;48.642;9.142;2023-12-28T03:30:16;97154.41;;;21.76;37.13
80124;BME280;69433;48.642;9.142;2023-12-28T03:32:48;97153.66;;;21.76;37.13
80124;BME280;69433;48.642;9.142;2023-12-28T03:35:39;97159.78;;;21.76;37.39
80124;BME280;69433;48.642;9.142;2023-12-28T03:38:05;97151.41;;;21.71;37.10
80124;BME280;69433;48.642;9.142;2023-12-28T03:41:01;97153.72;;;21.69;37.39
80124;BME280;69433;48.642;9.142;2023-12-28T03:43:26;97150.66;;;21.67;37.41
80124;BME280;69433;48.642;9.142;2023-12-28T03:45:51;97151.44;;;21.67;37.42
80124;BME280;69433;48.642;9.142;2023-12-28T03:48:22;97154.47;;;21.69;37.29
80124;BME280;69433;48.642;9.142;2023-12-28T03:50:48;97158.28;;;21.72;37.11
80124;BME280;69433;48.642;9.142;2023-12-28T03:53:25;97154.44;;;21.73;37.24
80124;BME280;69433;48.642;9.142;2023-12-28T03:56:00;97149.09;;;21.73;37.38
80124;BME280;69433;48.642;9.142;2023-12-28T03:58:35;97147.94;;;21.74;37.45
80124;BME280;69433;48.642;9.142;2023-12-28T04:01:01;97149.88;;;21.70;37.46
80124;BME280;69433;48.642;9.142;2023-12-28T04:03:42;97149.13;;;21.69;37.35
80124;BME280;69433;48.642;9.142;2023-12-28T04:06:15;97144.16;;;21.68;37.35
80124;BME280;69433;48.642;9.142;2023-12-28T04:08:52;97132.25;;;21.76;37.43
80124;BME280;69433;48.642;9.142;2023-12-28T04:11:17;97134.53;;;21.81;37.15
80124;BME280;69433;48.642;9.142;2023-12-28T04:14:03;97126.44;;;21.84;37.05
80124;BME280;69433;48.642;9.142;2023-12-28T04:16:56;97126.81;;;21.87;37.02
80124;BME280;69433;48.642;9.142;2023-12-28T04:19:24;97129.09;;;21.88;36.99
80124;BME280;69433;48.642;9.142;2023-12-28T04:21:55;97123.06;;;21.80;36.50
80124;BME280;69433;48.642;9.142;2023-12-28T04:27:17;97113.66;;;21.58;36.18
80124;BME280;69433;48.642;9.142;2023-12-28T04:29:48;97114.41;;;21.59;36.31
80124;BME280;69433;48.642;9.142;2023-12-28T04:32:14;97105.19;;;21.67;35.97
80124;BME280;69433;48.642;9.142;2023-12-28T04:34:39;97106.31;;;21.69;35.67
80124;BME280;69433;48.642;9.142;2023-12-28T04:37:04;97097.06;;;21.77;35.51
80124;BME280;69433;48.642;9.142;2023-12-28T04:39:29;97098.91;;;21.84;35.14
80124;BME280;69433;48.642;9.142;2023-12-28T04:41:55;97119.88;;;21.93;35.36
80124;BME280;69433;48.642;9.142;2023-12-28T04:44:39;97118.25;;;22.09;34.86
80124;BME280;69433;48.642;9.142;2023-12-28T04:47:27;97118.50;;;22.22;34.76
80124;BME280;69433;48.642;9.142;2023-12-28T04:49:56;97125.69;;;22.32;34.88
80124;BME280;69433;48.642;9.142;2023-12-28T04:52:23;97110.28;;;22.40;34.79
80124;BME280;69433;48.642;9.142;2023-12-28T04:54:49;97120.13;;;22.50;34.75
80124;BME280;69433;48.642;9.142;2023-12-28T04:57:28;97114.72;;;22.57;34.57
80124;BME280;69433;48.642;9.142;2023-12-28T05:00:12;97110.78;;;22.65;34.64
80124;BME280;69433;48.642;9.142;2023-12-28T05:02:37;97095.03;;;22.71;34.67
80124;BME280;69433;48.642;9.142;2023-12-28T05:05:05;97094.63;;;22.76;34.87
80124;BME280;69433;48.642;9.142;2023-12-28T05:07:44;97119.06;;;22.81;34.50
80124;BME280;69433;48.642;9.142;2023-12-28T05:10:15;97117.09;;;22.85;34.71
80124;BME280;69433;48.642;9.142;2023-12-28T05:12:40;97120.47;;;22.89;34.69
80124;BME280;69433;48.642;9.142;2023-12-28T05:15:10;97123.53;;;22.91;34.46
80124;BME280;69433;48.642;9.142;2023-12-28T05:17:45;97118.53;;;22.93;34.42
80124;BME280;69433;48.642;9.142;2023-12-28T05:20:10;97126.94;;;22.96;34.66
80124;BME280;69433;48.642;9.142;2023-12-28T05:22:44;97134.22;;;22.95;34.54
80124;BME280;69433;48.642;9.142;2023-12-28T05:25:23;97133.09;;;22.92;34.39
80124;BME280;69433;48.642;9.142;2023-12-28T05:27:52;97132.38;;;22.88;34.61
80124;BME280;69433;48.642;9.142;2023-12-28T05:30:51;97123.56;;;22.88;34.50
80124;BME280;69433;48.642;9.142;2023-12-28T05:33:28;97130.50;;;22.85;34.69
80124;BME280;69433;48.642;9.142;2023-12-28T05:35:54;97133.97;;;22.82;34.74
80124;BME280;69433;48.642;9.142;2023-12-28T05:38:36;97129.78;;;22.81;35.02
80124;BME280;69433;48.642;9.142;2023-12-28T05:41:18;97129.78;;;22.81;34.75
80124;BME280;69433;48.642;9.142;2023-12-28T05:43:43;97125.56;;;22.80;35.05
80124;BME280;69433;48.642;9.142;2023-12-28T05:46:10;97132.84;;;22.80;35.06
80124;BME280;69433;48.642;9.142;2023-12-28T05:48:54;97134.00;;;22.79;35.03
80124;BME280;69433;48.642;9.142;2023-12-28T05:51:37;97141.28;;;22.78;35.32
80124;BME280;69433;48.642;9.142;2023-12-28T05:54:09;97138.59;;;22.78;35.17
80124;BME280;69433;48.642;9.142;2023-12-28T05:56:42;97137.44;;;22.79;35.28
80124;BME280;69433;48.642;9.142;2023-12-28T05:59:30;97127.88;;;22.78;35.24
80124;BME280;69433;48.642;9.142;2023-12-28T06:05:01;97128.31;;;22.77;35.44
80124;BME280;69433;48.642;9.142;2023-12-28T06:07:49;97130.63;;;22.75;35.32
80124;BME280;69433;48.642;9.142;2023-12-28T06:13:34;97141.44;;;22.64;35.49
80124;BME280;69433;48.642;9.142;2023-12-28T06:16:01;97136.09;;;22.61;35.40
80124;BME280;69433;48.642;9.142;2023-12-28T06:21:52;97143.47;;;22.49;35.81
80124;BME280;69433;48.642;9.142;2023-12-28T06:24:19;97151.59;;;22.42;35.95
80124;BME280;69433;48.642;9.142;2023-12-28T06:27:14;97149.38;;;22.37;36.06
80124;BME280;69433;48.642;9.142;2023-12-28T06:29:58;97157.06;;;22.32;36.17
80124;BME280;69433;48.642;9.142;2023-12-28T06:32:50;97155.97;;;22.26;36.20
80124;BME280;69433;48.642;9.142;2023-12-28T06:35:29;97155.66;;;22.20;36.41
80124;BME280;69433;48.642;9.142;2023-12-28T06:37:56;97154.16;;;22.15;36.40
80124;BME280;69433;48.642;9.142;2023-12-28T06:40:21;97145.81;;;22.06;36.67
80124;BME280;69433;48.642;9.142;2023-12-28T06:46:20;97157.41;;;21.89;36.61
80124;BME280;69433;48.642;9.142;2023-12-28T06:49:06;97143.66;;;21.83;36.70
80124;BME280;69433;48.642;9.142;2023-12-28T06:51:31;97154.00;;;21.81;36.54
80124;BME280;69433;48.642;9.142;2023-12-28T06:57:23;97164.38;;;21.72;37.10
80124;BME280;69433;48.642;9.142;2023-12-28T06:59:49;97166.66;;;21.74;37.04
80124;BME280;69433;48.642;9.142;2023-12-28T07:05:30;97164.47;;;21.62;37.33
80124;BME280;69433;48.642;9.142;2023-12-28T07:08:02;97161.00;;;21.65;37.20
80124;BME280;69433;48.642;9.142;2023-12-28T07:10:36;97166.72;;;21.67;37.18
80124;BME280;69433;48.642;9.142;2023-12-28T07:13:10;97174.34;;;21.72;37.15
80124;BME280;69433;48.642;9.142;2023-12-28T07:15:46;97175.06;;;21.76;37.04
80124;BME280;69433;48.642;9.142;2023-12-28T07:18:11;97175.44;;;21.74;36.90
80124;BME280;69433;48.642;9.142;2023-12-28T07:20:37;97180.41;;;21.76;36.82
80124;BME280;69433;48.642;9.142;2023-12-28T07:23:02;97168.94;;;21.75;37.13
80124;BME280;69433;48.642;9.142;2023-12-28T07:28:51;97168.22;;;21.71;37.26
80124;BME280;69433;48.642;9.142;2023-12-28T07:31:24;97165.94;;;21.70;37.40
80124;BME280;69433;48.642;9.142;2023-12-28T07:33:53;97171.31;;;21.66;37.45
80124;BME280;69433;48.642;9.142;2023-12-28T07:36:19;97172.84;;;21.64;37.42
80124;BME280;69433;48.642;9.142;2023-12-28T07:38:44;97175.16;;;21.62;37.39
80124;BME280;69433;48.642;9.142;2023-12-28T07:41:11;97173.66;;;21.61;37.55
80124;BME280;69433;48.642;9.142;2023-12-28T07:43:54;97182.44;;;21.61;37.64
80124;BME280;69433;48.642;9.142;2023-12-28T07:46:28;97194.66;;;21.59;37.60
80124;BME280;69433;48.642;9.142;2023-12-28T07:48:54;97189.31;;;21.59;37.62
80124;BME280;69433;48.642;9.142;2023-12-28T07:51:27;97182.81;;;21.60;37.60
80124;BME280;69433;48.642;9.142;2023-12-28T07:57:14;97199.25;;;21.58;37.82
80124;BME280;69433;48.642;9.142;2023-12-28T07:59:47;97197.72;;;21.61;37.68
80124;BME280;69433;48.642;9.142;2023-12-28T08:02:19;97194.25;;;21.64;37.63
80124;BME280;69433;48.642;9.142;2023-12-28T08:04:59;97198.06;;;21.63;37.80
80124;BME280;69433;48.642;9.142;2023-12-28T08:07:37;97201.94;;;21.62;38.33
80124;BME280;69433;48.642;9.142;2023-12-28T08:10:02;97205.75;;;21.61;38.07
80124;BME280;69433;48.642;9.142;2023-12-28T08:12:31;97206.88;;;21.63;37.80
80124;BME280;69433;48.642;9.142;2023-12-28T08:14:59;97208.44;;;21.61;38.03
80124;BME280;69433;48.642;9.142;2023-12-28T08:17:59;97209.16;;;21.65;38.01
80124;BME280;69433;48.642;9.142;2023-12-28T08:20:24;97213.75;;;21.64;37.78
80124;BME280;69433;48.642;9.142;2023-12-28T08:22:49;97213.34;;;21.66;37.87
80124;BME280;69433;48.642;9.142;2023-12-28T08:25:16;97210.66;;;21.69;37.65
80124;BME280;69433;48.642;9.142;2023-12-28T08:27:43;97211.81;;;21.72;37.78
80124;BME280;69433;48.642;9.142;2023-12-28T08:30:09;97214.44;;;21.75;37.52
80124;BME280;69433;48.642;9.142;2023-12-28T08:36:06;97210.94;;;21.82;37.54
80124;BME280;69433;48.642;9.142;2023-12-28T08:38:48;97214.00;;;21.84;37.55
80124;BME280;69433;48.642;9.142;2023-12-28T08:41:23;97213.59;;;21.89;37.79
80124;BME280;69433;48.642;9.142;2023-12-28T08:43:58;97218.50;;;22.01;37.68
80124;BME280;69433;48.642;9.142;2023-12-28T08:46:32;97216.94;;;22.07;37.35
80124;BME280;69433;48.642;9.142;2023-12-28T08:49:13;97224.53;;;22.12;37.25
80124;BME280;69433;48.642;9.142;2023-12-28T08:51:50;97228.03;;;22.09;37.13
80124;BME280;69433;48.642;9.142;2023-12-28T08:54:33;97226.50;;;22.08;37.25
80124;BME280;69433;48.642;9.142;2023-12-28T08:57:04;97216.19;;;22.07;37.01
80124;BME280;69433;48.642;9.142;2023-12-28T08:59:30;97221.53;;;22.07;37.21
80124;BME280;69433;48.642;9.142;2023-12-28T09:02:03;97226.91;;;22.07;36.97
80124;BME280;69433;48.642;9.142;2023-12-28T09:04:28;97225.00;;;22.04;37.09
80124;BME280;69433;48.642;9.142;2023-12-28T09:07:03;97216.22;;;21.96;37.22
80124;BME280;69433;48.642;9.142;2023-12-28T09:09:37;97208.59;;;21.95;37.07
80124;BME280;69433;48.642;9.142;2023-12-28T09:12:10;97205.97;;;21.88;37.29
80124;BME280;69433;48.642;9.142;2023-12-28T09:14:39;97215.53;;;21.85;37.38
80124;BME280;69433;48.642;9.142;2023-12-28T09:17:04;97215.16;;;21.83;37.22
80124;BME280;69433;48.642;9.142;2023-12-28T09:19:33;97218.63;;;21.80;37.51
80124;BME280;69433;48.642;9.142;2023-12-28T09:22:06;97222.84;;;21.81;37.41
80124;BME280;69433;48.642;9.142;2023-12-28T09:24:37;97224.00;;;21.80;37.11
80124;BME280;69433;48.642;9.142;2023-12-28T09:27:02;97236.22;;;21.81;37.06
80124;BME280;69433;48.642;9.142;2023-12-28T09:29:37;97231.63;;;21.78;37.22
80124;BME280;69433;48.642;9.142;2023-12-28T09:32:10;97238.13;;;21.80;37.12
80124;BME280;69433;48.642;9.142;2023-12-28T09:34:44;97242.28;;;21.85;37.27
80124;BME280;69433;48.642;9.142;2023-12-28T09:37:10;97257.19;;;21.86;37.83
80124;BME280;69433;48.642;9.142;2023-12-28T09:39:35;97243.44;;;21.84;37.54
80124;BME280;69433;48.642;9.142;2023-12-28T09:42:17;97244.19;;;21.88;37.32
80124;BME280;69433;48.642;9.142;2023-12-28T09:44:59;97246.50;;;21.86;37.26
80124;BME280;69433;48.642;9.142;2023-12-28T09:47:31;97259.09;;;21.89;37.16
80124;BME280;69433;48.642;9.142;2023-12-28T09:49:57;97253.38;;;21.87;37.24
80124;BME280;69433;48.642;9.142;2023-12-28T09:52:29;97259.94;;;21.79;37.41
80124;BME280;69433;48.642;9.142;2023-12-28T09:55:08;97251.47;;;21.84;36.97
80124;BME280;69433;48.642;9.142;2023-12-28T09:57:38;97257.97;;;21.83;36.84
80124;BME280;69433;48.642;9.142;2023-12-28T10:00:06;97257.59;;;21.84;36.39
80124;BME280;69433;48.642;9.142;2023-12-28T10:02:44;97252.28;;;21.81;36.11
80124;BME280;69433;48.642;9.142;2023-12-28T10:05:20;97254.94;;;21.81;35.79
80124;BME280;69433;48.642;9.142;2023-12-28T10:07:47;97254.19;;;21.80;35.39
80124;BME280;69433;48.642;9.142;2023-12-28T10:10:12;97262.97;;;21.81;35.79
80124;BME280;69433;48.642;9.142;2023-12-28T10:12:38;97251.50;;;21.80;36.28
80124;BME280;69433;48.642;9.142;2023-12-28T10:15:16;97248.78;;;21.84;36.48
80124;BME280;69433;48.642;9.142;2023-12-28T10:17:41;97243.88;;;21.79;36.90
80124;BME280;69433;48.642;9.142;2023-12-28T10:20:07;97246.16;;;21.77;36.53
80124;BME280;69433;48.642;9.142;2023-12-28T10:22:37;97245.75;;;21.82;36.65
80124;BME280;69433;48.642;9.142;2023-12-28T10:25:06;97237.72;;;21.82;36.84
80124;BME280;69433;48.642;9.142;2023-12-28T10:27:32;97233.88;;;21.87;36.76
80124;BME280;69433;48.642;9.142;2023-12-28T10:29:58;97235.03;;;21.85;37.09
80124;BME280;69433;48.642;9.142;2023-12-28T10:32:30;97234.25;;;21.89;37.10
80124;BME280;69433;48.642;9.142;2023-12-28T10:34:58;97239.22;;;21.90;37.37
80124;BME280;69433;48.642;9.142;2023-12-28T10:37:27;97236.13;;;21.92;37.10
80124;BME280;69433;48.642;9.142;2023-12-28T10:39:59;97228.50;;;21.90;37.24
80124;BME280;69433;48.642;9.142;2023-12-28T10:45:10;97230.13;;;21.77;37.39
80124;BME280;69433;48.642;9.142;2023-12-28T10:47:47;97224.00;;;21.73;37.51
80124;BME280;69433;48.642;9.142;2023-12-28T10:50:40;97220.22;;;21.67;36.51
80124;BME280;69433;48.642;9.142;2023-12-28T11:02:07;97212.97;;;21.64;35.75
80124;BME280;69433;48.642;9.142;2023-12-28T11:04:39;97208.44;;;21.61;36.43
80124;BME280;69433;48.642;9.142;2023-12-28T11:07:36;97194.25;;;21.64;35.83
80124;BME280;69433;48.642;9.142;2023-12-28T11:10:05;97189.66;;;21.64;35.80
80124;BME280;69433;48.642;9.142;2023-12-28T11:12:32;97195.06;;;21.61;36.02
80124;BME280;69433;48.642;9.142;2023-12-28T11:15:00;97193.47;;;21.63;36.16
80124;BME280;69433;48.642;9.142;2023-12-28T11:17:31;97189.66;;;21.68;36.12
80124;BME280;69433;48.642;9.142;2023-12-28T11:19:57;97189.28;;;21.66;36.23
80124;BME280;69433;48.642;9.142;2023-12-28T11:22:29;97190.78;;;21.70;37.19
80124;BME280;69433;48.642;9.142;2023-12-28T11:24:56;97190.75;;;21.74;36.69
80124;BME280;69433;48.642;9.142;2023-12-28T11:27:37;97185.44;;;21.70;36.66
80124;BME280;69433;48.642;9.142;2023-12-28T11:30:12;97190.03;;;21.70;37.03
80124;BME280;69433;48.642;9.142;2023-12-28T11:32:45;97186.53;;;21.76;37.02
80124;BME280;69433;48.642;9.142;2023-12-28T11:35:13;97191.50;;;21.74;36.67
80124;BME280;69433;48.642;9.142;2023-12-28T11:37:42;97179.28;;;21.73;36.91
80124;BME280;69433;48.642;9.142;2023-12-28T11:40:13;97177.38;;;21.74;36.69
80124;BME280;69433;48.642;9.142;2023-12-28T11:42:51;97175.84;;;21.73;36.65
80124;BME280;69433;48.642;9.142;2023-12-28T11:45:28;97178.94;;;21.71;36.70
80124;BME280;69433;48.642;9.142;2023-12-28T11:48:02;97181.63;;;21.68;36.63
80124;BME280;69433;48.642;9.142;2023-12-28T11:50:39;97182.00;;;21.70;36.64
80124;BME280;69433;48.642;9.142;2023-12-28T11:53:20;97179.72;;;21.68;36.47
80124;BME280;69433;48.642;9.142;2023-12-28T11:55:45;97183.91;;;21.66;36.61
80124;BME280;69433;48.642;9.142;2023-12-28T11:58:29;97173.97;;;21.66;36.54
80124;BME280;69433;48.642;9.142;2023-12-28T12:00:54;97174.75;;;21.67;36.47
80124;BME280;69433;48.642;9.142;2023-12-28T12:06:47;97174.75;;;21.67;36.43
80124;BME280;69433;48.642;9.142;2023-12-28T12:09:14;97180.84;;;21.67;36.40
80124;BME280;69433;48.642;9.142;2023-12-28T12:11:49;97174.75;;;21.67;36.57
80124;BME280;69433;48.642;9.142;2023-12-28T12:14:14;97170.53;;;21.66;36.55
80124;BME280;69433;48.642;9.142;2023-12-28T12:16:40;97164.81;;;21.64;36.45
80124;BME280;69433;48.642;9.142;2023-12-28T12:19:05;97160.63;;;21.63;36.46
80124;BME280;69433;48.642;9.142;2023-12-28T12:21:33;97162.91;;;21.64;36.30
80124;BME280;69433;48.642;9.142;2023-12-28T12:23:59;97159.13;;;21.62;36.53
80124;BME280;69433;48.642;9.142;2023-12-28T12:26:26;97153.78;;;21.62;36.52
80124;BME280;69433;48.642;9.142;2023-12-28T12:31:57;97145.75;;;21.62;36.51
80124;BME280;69433;48.642;9.142;2023-12-28T12:34:23;97146.91;;;21.61;36.63
80124;BME280;69433;48.642;9.142;2023-12-28T12:36:48;97146.53;;;21.59;36.54
80124;BME280;69433;48.642;9.142;2023-12-28T12:39:29;97150.72;;;21.60;36.74
80124;BME280;69433;48.642;9.142;2023-12-28T12:42:21;97148.03;;;21.60;36.51
80124;BME280;69433;48.642;9.142;2023-12-28T12:44:48;97138.50;;;21.59;36.73
80124;BME280;69433;48.642;9.142;2023-12-28T12:47:14;97139.25;;;21.59;36.65
80124;BME280;69433;48.642;9.142;2023-12-28T12:49:43;97142.31;;;21.58;36.41
80124;BME280;69433;48.642;9.142;2023-12-28T12:52:20;97146.91;;;21.57;36.60
80124;BME280;69433;48.642;9.142;2023-12-28T12:54:59;97146.16;;;21.57;36.78
80124;BME280;69433;48.642;9.142;2023-12-28T12:57:46;97151.50;;;21.57;36.44
80124;BME280;69433;48.642;9.142;2023-12-28T13:00:29;97146.16;;;21.57;36.63
80124;BME280;69433;48.642;9.142;2023-12-28T13:03:01;97145.75;;;21.55;36.56
80124;BME280;69433;48.642;9.142;2023-12-28T13:05:26;97147.66;;;21.58;36.58
80124;BME280;69433;48.642;9.142;2023-12-28T13:07:53;97147.66;;;21.58;36.53
80124;BME280;69433;48.642;9.142;2023-12-28T13:10:27;97155.69;;;21.58;36.74
80124;BME280;69433;48.642;9.142;2023-12-28T13:12:54;97153.41;;;21.56;36.68
80124;BME280;69433;48.642;9.142;2023-12-28T13:15:25;97156.06;;;21.60;36.53
80124;BME280;69433;48.642;9.142;2023-12-28T13:17:51;97154.94;;;21.57;36.63
80124;BME280;69433;48.642;9.142;2023-12-28T13:20:16;97152.63;;;21.59;36.40
80124;BME280;69433;48.642;9.142;2023-12-28T13:22:45;97157.59;;;21.57;36.68
80124;BME280;69433;48.642;9.142;2023-12-28T13:28:29;97154.94;;;21.54;36.72
80124;BME280;69433;48.642;9.142;2023-12-28T13:31:05;97165.28;;;21.52;36.77
80124;BME280;69433;48.642;9.142;2023-12-28T13:33:34;97161.47;;;21.53;36.63
80124;BME280;69433;48.642;9.142;2023-12-28T13:36:00;97164.50;;;21.55;36.55
80124;BME280;69433;48.642;9.142;2023-12-28T13:38:26;97162.59;;;21.55;36.67
80124;BME280;69433;48.642;9.142;2023-12-28T13:40:56;97162.22;;;21.53;36.79
80124;BME280;69433;48.642;9.142;2023-12-28T13:43:41;97164.50;;;21.55;36.69
80124;BME280;69433;48.642;9.142;2023-12-28T13:46:07;97154.19;;;21.53;36.55
80124;BME280;69433;48.642;9.142;2023-12-28T13:48:37;97155.34;;;21.52;36.79
80124;BME280;69433;48.642;9.142;2023-12-28T13:51:26;97149.97;;;21.56;36.59
80124;BME280;69433;48.642;9.142;2023-12-28T13:54:12;97154.59;;;21.52;36.77
80124;BME280;69433;48.642;9.142;2023-12-28T13:56:38;97153.84;;;21.51;36.51
80124;BME280;69433;48.642;9.142;2023-12-28T13:59:03;97158.41;;;21.51;36.69
80124;BME280;69433;48.642;9.142;2023-12-28T14:01:29;97150.34;;;21.54;36.77
80124;BME280;69433;48.642;9.142;2023-12-28T14:03:55;97143.91;;;21.52;36.69
80124;BME280;69433;48.642;9.142;2023-12-28T14:06:21;97143.47;;;21.57;36.75
80124;BME280;69433;48.642;9.142;2023-12-28T14:08:46;97147.66;;;21.61;36.72
80124;BME280;69433;48.642;9.142;2023-12-28T14:11:12;97149.91;;;21.66;36.69
80124;BME280;69433;48.642;9.142;2023-12-28T14:13:40;97138.78;;;21.71;36.49
80124;BME280;69433;48.642;9.142;2023-12-28T14:16:06;97142.94;;;21.76;36.96
80124;BME280;69433;48.642;9.142;2023-12-28T14:18:31;97138.69;;;21.82;36.63
80124;BME280;69433;48.642;9.142;2023-12-28T14:21:03;97130.63;;;21.89;36.63
80124;BME280;69433;48.642;9.142;2023-12-28T14:23:29;97140.50;;;21.96;36.43
80124;BME280;69433;48.642;9.142;2023-12-28T14:26:24;97137.78;;;22.03;36.53
80124;BME280;69433;48.642;9.142;2023-12-28T14:28:56;97138.91;;;22.09;36.56
80124;BME280;69433;48.642;9.142;2023-12-28T14:31:22;97139.63;;;22.13;36.45
80124;BME280;69433;48.642;9.142;2023-12-28T14:33:55;97138.81;;;22.19;36.36
80124;BME280;69433;48.642;9.142;2023-12-28T14:36:31;97150.25;;;22.24;36.49